sensor_id;sensor_type;location;lat;lon;timestamp;P1;durP1;ratioP1;P2;durP2;ratioP2
37239;SDS011;23130;48.760;9.178;2023-08-20T00:00:24;11.40;;;9.95;;
37239;SDS011;23130;48.760;9.178;2023-08-20T00:03:02;10.65;;;9.27;;
37239;SDS011;23130;48.760;9.178;2023-08-20T00:05:35;10.30;;;9.20;;
37239;SDS011;23130;48.760;9.178;2023-08-20T00:08:01;12.75;;;10.10;;
37239;SDS011;23130;48.760;9.178;2023-08-20T00:10:27;10.75;;;9.65;;
37239;SDS011;23130;48.760;9.178;2023-08-20T00:12:54;12.43;;;9.55;;
37239;SDS011;23130;48.760;9.178;2023-08-20T00:15:20;11.18;;;9.00;;
37239;SDS011;23130;48.760;9.178;2023-08-20T00:17:47;10.48;;;9.18;;
37239;SDS011;23130;48.760;9.178;2023-08-20T00:20:13;11.48;;;9.20;;
37239;SDS011;23130;48.760;9.178;2023-08-20T00:22:40;10.70;;;8.95;;
37239;SDS011;23130;48.760;9.178;2023-08-20T00:25:10;11.80;;;8.88;;
37239;SDS011;23130;48.760;9.178;2023-08-20T00:27:38;9.88;;;8.88;;
37239;SDS011;23130;48.760;9.178;2023-08-20T00:30:05;14.80;;;9.18;;
37239;SDS011;23130;48.760;9.178;2023-08-20T00:32:32;8.95;;;8.05;;
37239;SDS011;23130;48.760;9.178;2023-08-20T00:35:02;11.15;;;8.57;;
37239;SDS011;23130;48.760;9.178;2023-08-20T00:37:28;10.77;;;9.75;;
37239;SDS011;23130;48.760;9.178;2023-08-20T00:39:55;9.73;;;8.73;;
37239;SDS011;23130;48.760;9.178;2023-08-20T00:42:25;9.98;;;8.80;;
37239;SDS011;23130;48.760;9.178;2023-08-20T00:44:54;10.55;;;9.02;;
37239;SDS011;23130;48.760;9.178;2023-08-20T00:47:20;10.00;;;9.00;;
37239;SDS011;23130;48.760;9.178;2023-08-20T00:49:46;11.60;;;8.98;;
37239;SDS011;23130;48.760;9.178;2023-08-20T00:52:13;9.10;;;8.20;;
37239;SDS011;23130;48.760;9.178;2023-08-20T00:54:44;13.93;;;10.30;;
37239;SDS011;23130;48.760;9.178;2023-08-20T00:57:11;9.32;;;8.35;;
37239;SDS011;23130;48.760;9.178;2023-08-20T00:59:39;11.60;;;10.38;;
37239;SDS011;23130;48.760;9.178;2023-08-20T01:02:05;12.60;;;9.80;;
37239;SDS011;23130;48.760;9.178;2023-08-20T01:04:31;10.20;;;9.15;;
37239;SDS011;23130;48.760;9.178;2023-08-20T01:09:49;10.48;;;9.38;;
37239;SDS011;23130;48.760;9.178;2023-08-20T01:12:34;12.60;;;9.38;;
37239;SDS011;23130;48.760;9.178;2023-08-20T01:15:01;10.15;;;9.05;;
37239;SDS011;23130;48.760;9.178;2023-08-20T01:17:28;12.93;;;9.98;;
37239;SDS011;23130;48.760;9.178;2023-08-20T01:19:54;12.48;;;10.07;;
37239;SDS011;23130;48.760;9.178;2023-08-20T01:28:30;13.95;;;11.40;;
37239;SDS011;23130;48.760;9.178;2023-08-20T01:30:58;11.38;;;10.23;;
37239;SDS011;23130;48.760;9.178;2023-08-20T01:33:26;13.52;;;10.25;;
37239;SDS011;23130;48.760;9.178;2023-08-20T01:35:53;11.98;;;9.57;;
37239;SDS011;23130;48.760;9.178;2023-08-20T01:38:20;12.20;;;10.48;;
37239;SDS011;23130;48.760;9.178;2023-08-20T01:40:46;12.95;;;9.07;;
37239;SDS011;23130;48.760;9.178;2023-08-20T01:43:12;14.43;;;11.52;;
37239;SDS011;23130;48.760;9.178;2023-08-20T01:45:38;11.35;;;9.15;;
37239;SDS011;23130;48.760;9.178;2023-08-20T01:48:03;11.50;;;9.82;;
37239;SDS011;23130;48.760;9.178;2023-08-20T01:50:29;13.63;;;10.63;;
37239;SDS011;23130;48.760;9.178;2023-08-20T01:52:55;11.25;;;10.20;;
37239;SDS011;23130;48.760;9.178;2023-08-20T01:55:21;14.70;;;11.02;;
37239;SDS011;23130;48.760;9.178;2023-08-20T01:57:48;10.77;;;9.77;;
37239;SDS011;23130;48.760;9.178;2023-08-20T02:00:13;12.25;;;11.05;;
37239;SDS011;23130;48.760;9.178;2023-08-20T02:02:39;14.20;;;9.43;;
37239;SDS011;23130;48.760;9.178;2023-08-20T02:05:05;18.17;;;12.15;;
37239;SDS011;23130;48.760;9.178;2023-08-20T02:07:32;13.48;;;10.63;;
37239;SDS011;23130;48.760;9.178;2023-08-20T02:09:57;11.80;;;10.27;;
37239;SDS011;23130;48.760;9.178;2023-08-20T02:12:25;11.80;;;10.48;;
37239;SDS011;23130;48.760;9.178;2023-08-20T02:14:52;16.05;;;11.25;;
37239;SDS011;23130;48.760;9.178;2023-08-20T02:17:19;15.73;;;11.40;;
37239;SDS011;23130;48.760;9.178;2023-08-20T02:19:46;11.93;;;10.20;;
37239;SDS011;23130;48.760;9.178;2023-08-20T02:22:12;13.05;;;11.35;;
37239;SDS011;23130;48.760;9.178;2023-08-20T02:24:38;13.32;;;11.27;;
37239;SDS011;23130;48.760;9.178;2023-08-20T02:27:05;14.98;;;11.18;;
37239;SDS011;23130;48.760;9.178;2023-08-20T02:29:31;13.73;;;12.35;;
37239;SDS011;23130;48.760;9.178;2023-08-20T02:31:57;12.40;;;11.02;;
37239;SDS011;23130;48.760;9.178;2023-08-20T02:34:23;15.63;;;12.27;;
37239;SDS011;23130;48.760;9.178;2023-08-20T02:36:51;14.75;;;11.23;;
37239;SDS011;23130;48.760;9.178;2023-08-20T02:39:16;13.05;;;11.52;;
37239;SDS011;23130;48.760;9.178;2023-08-20T02:41:42;15.57;;;11.45;;
37239;SDS011;23130;48.760;9.178;2023-08-20T02:44:08;14.27;;;12.63;;
37239;SDS011;23130;48.760;9.178;2023-08-20T02:46:34;15.27;;;11.98;;
37239;SDS011;23130;48.760;9.178;2023-08-20T02:49:00;13.75;;;11.35;;
37239;SDS011;23130;48.760;9.178;2023-08-20T02:51:30;14.90;;;12.45;;
37239;SDS011;23130;48.760;9.178;2023-08-20T02:53:55;19.13;;;11.90;;
37239;SDS011;23130;48.760;9.178;2023-08-20T02:56:21;12.90;;;11.60;;
37239;SDS011;23130;48.760;9.178;2023-08-20T02:58:46;13.57;;;11.88;;
37239;SDS011;23130;48.760;9.178;2023-08-20T03:01:21;13.98;;;10.98;;
37239;SDS011;23130;48.760;9.178;2023-08-20T03:03:48;19.92;;;13.57;;
37239;SDS011;23130;48.760;9.178;2023-08-20T03:06:15;17.80;;;13.20;;
37239;SDS011;23130;48.760;9.178;2023-08-20T03:08:41;13.85;;;11.43;;
37239;SDS011;23130;48.760;9.178;2023-08-20T03:11:08;17.15;;;12.27;;
37239;SDS011;23130;48.760;9.178;2023-08-20T03:13:33;14.68;;;11.63;;
37239;SDS011;23130;48.760;9.178;2023-08-20T03:15:59;14.15;;;12.68;;
37239;SDS011;23130;48.760;9.178;2023-08-20T03:18:27;14.90;;;12.07;;
37239;SDS011;23130;48.760;9.178;2023-08-20T03:20:55;13.95;;;12.15;;
37239;SDS011;23130;48.760;9.178;2023-08-20T03:23:21;15.18;;;11.93;;
37239;SDS011;23130;48.760;9.178;2023-08-20T03:25:48;13.45;;;12.05;;
37239;SDS011;23130;48.760;9.178;2023-08-20T03:28:14;13.15;;;11.75;;
37239;SDS011;23130;48.760;9.178;2023-08-20T03:30:40;15.90;;;12.85;;
37239;SDS011;23130;48.760;9.178;2023-08-20T03:33:06;14.70;;;13.02;;
37239;SDS011;23130;48.760;9.178;2023-08-20T03:35:31;13.30;;;11.75;;
37239;SDS011;23130;48.760;9.178;2023-08-20T03:37:57;14.82;;;13.27;;
37239;SDS011;23130;48.760;9.178;2023-08-20T03:40:22;18.58;;;13.57;;
37239;SDS011;23130;48.760;9.178;2023-08-20T03:42:48;15.25;;;13.60;;
37239;SDS011;23130;48.760;9.178;2023-08-20T03:45:15;16.58;;;13.18;;
37239;SDS011;23130;48.760;9.178;2023-08-20T03:47:41;16.67;;;13.30;;
37239;SDS011;23130;48.760;9.178;2023-08-20T03:50:09;15.13;;;12.70;;
37239;SDS011;23130;48.760;9.178;2023-08-20T03:52:35;14.63;;;12.80;;
37239;SDS011;23130;48.760;9.178;2023-08-20T03:55:00;16.48;;;13.98;;
37239;SDS011;23130;48.760;9.178;2023-08-20T03:57:26;16.00;;;13.57;;
37239;SDS011;23130;48.760;9.178;2023-08-20T03:59:54;15.73;;;13.82;;
37239;SDS011;23130;48.760;9.178;2023-08-20T04:02:19;15.57;;;12.88;;
37239;SDS011;23130;48.760;9.178;2023-08-20T04:04:46;18.42;;;13.65;;
37239;SDS011;23130;48.760;9.178;2023-08-20T04:07:12;17.55;;;13.15;;
37239;SDS011;23130;48.760;9.178;2023-08-20T04:09:37;16.00;;;13.18;;
37239;SDS011;23130;48.760;9.178;2023-08-20T04:12:03;15.02;;;13.40;;
37239;SDS011;23130;48.760;9.178;2023-08-20T04:14:30;14.45;;;12.90;;
37239;SDS011;23130;48.760;9.178;2023-08-20T04:16:57;15.90;;;14.07;;
37239;SDS011;23130;48.760;9.178;2023-08-20T04:19:24;18.90;;;14.10;;
37239;SDS011;23130;48.760;9.178;2023-08-20T04:21:52;18.05;;;14.48;;
37239;SDS011;23130;48.760;9.178;2023-08-20T04:24:18;17.75;;;14.40;;
37239;SDS011;23130;48.760;9.178;2023-08-20T04:26:43;19.75;;;13.98;;
37239;SDS011;23130;48.760;9.178;2023-08-20T04:29:09;16.80;;;14.68;;
37239;SDS011;23130;48.760;9.178;2023-08-20T04:31:35;20.85;;;16.55;;
37239;SDS011;23130;48.760;9.178;2023-08-20T04:34:01;17.88;;;15.98;;
37239;SDS011;23130;48.760;9.178;2023-08-20T04:36:27;20.13;;;16.15;;
37239;SDS011;23130;48.760;9.178;2023-08-20T04:38:52;17.33;;;14.60;;
37239;SDS011;23130;48.760;9.178;2023-08-20T04:41:19;18.90;;;15.45;;
37239;SDS011;23130;48.760;9.178;2023-08-20T04:43:46;15.23;;;12.98;;
37239;SDS011;23130;48.760;9.178;2023-08-20T04:46:11;16.67;;;14.38;;
37239;SDS011;23130;48.760;9.178;2023-08-20T04:48:40;17.70;;;14.55;;
37239;SDS011;23130;48.760;9.178;2023-08-20T04:51:07;16.20;;;13.95;;
37239;SDS011;23130;48.760;9.178;2023-08-20T04:53:34;13.40;;;11.85;;
37239;SDS011;23130;48.760;9.178;2023-08-20T04:56:02;15.50;;;13.70;;
37239;SDS011;23130;48.760;9.178;2023-08-20T04:58:29;13.38;;;11.95;;
37239;SDS011;23130;48.760;9.178;2023-08-20T05:00:54;14.25;;;12.38;;
37239;SDS011;23130;48.760;9.178;2023-08-20T05:03:21;14.65;;;12.60;;
37239;SDS011;23130;48.760;9.178;2023-08-20T05:05:50;13.48;;;11.98;;
37239;SDS011;23130;48.760;9.178;2023-08-20T05:08:16;13.32;;;11.85;;
37239;SDS011;23130;48.760;9.178;2023-08-20T05:10:42;12.68;;;11.38;;
37239;SDS011;23130;48.760;9.178;2023-08-20T05:13:08;12.88;;;11.45;;
37239;SDS011;23130;48.760;9.178;2023-08-20T05:15:34;14.73;;;12.50;;
37239;SDS011;23130;48.760;9.178;2023-08-20T05:18:00;13.90;;;11.90;;
37239;SDS011;23130;48.760;9.178;2023-08-20T05:20:27;14.35;;;11.85;;
37239;SDS011;23130;48.760;9.178;2023-08-20T05:22:54;12.00;;;10.68;;
37239;SDS011;23130;48.760;9.178;2023-08-20T05:25:21;10.55;;;9.25;;
37239;SDS011;23130;48.760;9.178;2023-08-20T05:27:48;11.18;;;8.77;;
37239;SDS011;23130;48.760;9.178;2023-08-20T05:30:13;13.82;;;10.13;;
37239;SDS011;23130;48.760;9.178;2023-08-20T05:32:40;11.38;;;8.55;;
37239;SDS011;23130;48.760;9.178;2023-08-20T05:35:06;8.95;;;7.45;;
37239;SDS011;23130;48.760;9.178;2023-08-20T05:37:31;11.55;;;8.82;;
37239;SDS011;23130;48.760;9.178;2023-08-20T05:39:57;12.75;;;7.18;;
37239;SDS011;23130;48.760;9.178;2023-08-20T05:42:23;9.07;;;8.18;;
37239;SDS011;23130;48.760;9.178;2023-08-20T05:44:50;9.30;;;7.15;;
37239;SDS011;23130;48.760;9.178;2023-08-20T05:47:18;10.68;;;8.75;;
37239;SDS011;23130;48.760;9.178;2023-08-20T05:49:44;16.60;;;8.88;;
37239;SDS011;23130;48.760;9.178;2023-08-20T05:52:10;8.40;;;7.47;;
37239;SDS011;23130;48.760;9.178;2023-08-20T05:54:36;12.63;;;8.77;;
37239;SDS011;23130;48.760;9.178;2023-08-20T05:57:01;12.00;;;9.13;;
37239;SDS011;23130;48.760;9.178;2023-08-20T05:59:28;9.73;;;8.50;;
37239;SDS011;23130;48.760;9.178;2023-08-20T06:01:54;9.77;;;7.80;;
37239;SDS011;23130;48.760;9.178;2023-08-20T06:04:21;9.98;;;7.40;;
37239;SDS011;23130;48.760;9.178;2023-08-20T06:06:47;10.18;;;7.05;;
37239;SDS011;23130;48.760;9.178;2023-08-20T06:09:14;8.52;;;7.68;;
37239;SDS011;23130;48.760;9.178;2023-08-20T06:11:39;8.00;;;7.05;;
37239;SDS011;23130;48.760;9.178;2023-08-20T06:14:05;9.93;;;7.72;;
37239;SDS011;23130;48.760;9.178;2023-08-20T06:16:32;11.93;;;8.10;;
37239;SDS011;23130;48.760;9.178;2023-08-20T06:18:57;10.55;;;7.78;;
37239;SDS011;23130;48.760;9.178;2023-08-20T06:21:24;11.82;;;8.18;;
37239;SDS011;23130;48.760;9.178;2023-08-20T06:23:51;11.32;;;8.00;;
37239;SDS011;23130;48.760;9.178;2023-08-20T06:26:16;11.20;;;7.47;;
37239;SDS011;23130;48.760;9.178;2023-08-20T06:28:44;10.20;;;8.38;;
37239;SDS011;23130;48.760;9.178;2023-08-20T06:31:09;8.90;;;7.85;;
37239;SDS011;23130;48.760;9.178;2023-08-20T06:33:35;8.27;;;7.22;;
37239;SDS011;23130;48.760;9.178;2023-08-20T06:36:00;9.38;;;7.60;;
37239;SDS011;23130;48.760;9.178;2023-08-20T06:38:27;7.65;;;6.85;;
37239;SDS011;23130;48.760;9.178;2023-08-20T06:40:53;9.73;;;7.60;;
37239;SDS011;23130;48.760;9.178;2023-08-20T06:43:20;8.82;;;8.00;;
37239;SDS011;23130;48.760;9.178;2023-08-20T06:45:47;8.55;;;7.80;;
37239;SDS011;23130;48.760;9.178;2023-08-20T06:48:13;10.52;;;7.90;;
37239;SDS011;23130;48.760;9.178;2023-08-20T06:50:38;11.07;;;7.80;;
37239;SDS011;23130;48.760;9.178;2023-08-20T06:53:06;8.52;;;7.70;;
37239;SDS011;23130;48.760;9.178;2023-08-20T06:55:32;10.32;;;7.53;;
37239;SDS011;23130;48.760;9.178;2023-08-20T06:57:57;10.50;;;7.30;;
37239;SDS011;23130;48.760;9.178;2023-08-20T07:00:24;10.10;;;7.18;;
37239;SDS011;23130;48.760;9.178;2023-08-20T07:02:49;8.90;;;7.93;;
37239;SDS011;23130;48.760;9.178;2023-08-20T07:05:15;8.75;;;7.85;;
37239;SDS011;23130;48.760;9.178;2023-08-20T07:07:41;13.00;;;7.78;;
37239;SDS011;23130;48.760;9.178;2023-08-20T07:10:07;12.85;;;8.68;;
37239;SDS011;23130;48.760;9.178;2023-08-20T07:12:33;9.68;;;7.75;;
37239;SDS011;23130;48.760;9.178;2023-08-20T07:15:00;10.02;;;8.07;;
37239;SDS011;23130;48.760;9.178;2023-08-20T07:17:25;10.85;;;8.73;;
37239;SDS011;23130;48.760;9.178;2023-08-20T07:19:52;9.73;;;8.60;;
37239;SDS011;23130;48.760;9.178;2023-08-20T07:22:18;11.93;;;8.45;;
37239;SDS011;23130;48.760;9.178;2023-08-20T07:24:43;12.15;;;8.70;;
37239;SDS011;23130;48.760;9.178;2023-08-20T07:27:09;9.25;;;8.15;;
37239;SDS011;23130;48.760;9.178;2023-08-20T07:29:37;10.65;;;8.93;;
37239;SDS011;23130;48.760;9.178;2023-08-20T07:32:03;9.60;;;8.10;;
37239;SDS011;23130;48.760;9.178;2023-08-20T07:34:30;9.35;;;8.43;;
37239;SDS011;23130;48.760;9.178;2023-08-20T07:36:59;9.98;;;8.93;;
37239;SDS011;23130;48.760;9.178;2023-08-20T07:39:25;10.85;;;9.05;;
37239;SDS011;23130;48.760;9.178;2023-08-20T07:41:50;12.60;;;10.00;;
37239;SDS011;23130;48.760;9.178;2023-08-20T07:44:17;10.85;;;9.02;;
37239;SDS011;23130;48.760;9.178;2023-08-20T07:46:43;10.73;;;9.60;;
37239;SDS011;23130;48.760;9.178;2023-08-20T07:49:08;11.35;;;9.30;;
37239;SDS011;23130;48.760;9.178;2023-08-20T07:51:34;15.88;;;9.88;;
37239;SDS011;23130;48.760;9.178;2023-08-20T07:53:59;11.57;;;10.30;;
37239;SDS011;23130;48.760;9.178;2023-08-20T07:56:25;10.93;;;9.82;;
37239;SDS011;23130;48.760;9.178;2023-08-20T07:58:52;13.20;;;9.63;;
37239;SDS011;23130;48.760;9.178;2023-08-20T08:01:18;13.57;;;9.82;;
37239;SDS011;23130;48.760;9.178;2023-08-20T08:03:44;10.80;;;9.60;;
37239;SDS011;23130;48.760;9.178;2023-08-20T08:06:10;11.48;;;9.93;;
37239;SDS011;23130;48.760;9.178;2023-08-20T08:08:37;11.05;;;9.85;;
37239;SDS011;23130;48.760;9.178;2023-08-20T08:11:08;11.25;;;9.55;;
37239;SDS011;23130;48.760;9.178;2023-08-20T08:13:33;12.45;;;9.75;;
37239;SDS011;23130;48.760;9.178;2023-08-20T08:15:59;14.68;;;11.10;;
37239;SDS011;23130;48.760;9.178;2023-08-20T08:18:26;10.40;;;9.32;;
37239;SDS011;23130;48.760;9.178;2023-08-20T08:20:53;12.82;;;11.13;;
37239;SDS011;23130;48.760;9.178;2023-08-20T08:23:18;11.13;;;9.93;;
37239;SDS011;23130;48.760;9.178;2023-08-20T08:25:44;13.88;;;11.68;;
37239;SDS011;23130;48.760;9.178;2023-08-20T08:28:10;12.60;;;11.07;;
37239;SDS011;23130;48.760;9.178;2023-08-20T08:30:35;12.32;;;11.02;;
37239;SDS011;23130;48.760;9.178;2023-08-20T08:33:01;11.88;;;10.45;;
37239;SDS011;23130;48.760;9.178;2023-08-20T08:35:27;13.00;;;10.98;;
37239;SDS011;23130;48.760;9.178;2023-08-20T08:37:52;12.95;;;10.75;;
37239;SDS011;23130;48.760;9.178;2023-08-20T08:40:18;15.13;;;11.57;;
37239;SDS011;23130;48.760;9.178;2023-08-20T08:42:46;13.43;;;10.88;;
37239;SDS011;23130;48.760;9.178;2023-08-20T08:45:18;16.85;;;11.85;;
37239;SDS011;23130;48.760;9.178;2023-08-20T08:47:45;12.48;;;11.18;;
37239;SDS011;23130;48.760;9.178;2023-08-20T08:50:11;13.02;;;11.05;;
37239;SDS011;23130;48.760;9.178;2023-08-20T08:52:37;12.00;;;10.77;;
37239;SDS011;23130;48.760;9.178;2023-08-20T08:55:04;11.40;;;10.23;;
37239;SDS011;23130;48.760;9.178;2023-08-20T08:57:33;13.75;;;10.65;;
37239;SDS011;23130;48.760;9.178;2023-08-20T08:59:58;14.00;;;11.00;;
37239;SDS011;23130;48.760;9.178;2023-08-20T09:02:25;11.35;;;10.18;;
37239;SDS011;23130;48.760;9.178;2023-08-20T09:04:51;15.75;;;11.10;;
37239;SDS011;23130;48.760;9.178;2023-08-20T09:07:17;13.63;;;10.88;;
37239;SDS011;23130;48.760;9.178;2023-08-20T09:09:45;13.55;;;11.15;;
37239;SDS011;23130;48.760;9.178;2023-08-20T09:12:14;11.60;;;10.30;;
37239;SDS011;23130;48.760;9.178;2023-08-20T09:14:51;10.88;;;9.27;;
37239;SDS011;23130;48.760;9.178;2023-08-20T09:17:17;12.13;;;10.93;;
37239;SDS011;23130;48.760;9.178;2023-08-20T09:19:51;11.65;;;10.55;;
37239;SDS011;23130;48.760;9.178;2023-08-20T09:22:21;14.73;;;11.00;;
37239;SDS011;23130;48.760;9.178;2023-08-20T09:24:52;13.73;;;10.80;;
37239;SDS011;23130;48.760;9.178;2023-08-20T09:27:21;16.45;;;11.93;;
37239;SDS011;23130;48.760;9.178;2023-08-20T09:29:48;17.52;;;13.15;;
37239;SDS011;23130;48.760;9.178;2023-08-20T09:32:25;12.45;;;11.15;;
37239;SDS011;23130;48.760;9.178;2023-08-20T09:34:54;14.23;;;11.10;;
37239;SDS011;23130;48.760;9.178;2023-08-20T09:37:22;13.18;;;11.02;;
37239;SDS011;23130;48.760;9.178;2023-08-20T09:39:48;14.07;;;12.00;;
37239;SDS011;23130;48.760;9.178;2023-08-20T09:42:16;12.25;;;11.00;;
37239;SDS011;23130;48.760;9.178;2023-08-20T09:44:43;10.90;;;9.80;;
37239;SDS011;23130;48.760;9.178;2023-08-20T09:47:13;10.50;;;9.30;;
37239;SDS011;23130;48.760;9.178;2023-08-20T09:49:42;12.57;;;9.05;;
37239;SDS011;23130;48.760;9.178;2023-08-20T09:52:11;11.90;;;9.48;;
37239;SDS011;23130;48.760;9.178;2023-08-20T09:54:50;12.50;;;11.10;;
37239;SDS011;23130;48.760;9.178;2023-08-20T09:57:39;15.18;;;9.88;;
37239;SDS011;23130;48.760;9.178;2023-08-20T10:02:35;14.30;;;10.27;;
37239;SDS011;23130;48.760;9.178;2023-08-20T10:05:02;12.25;;;9.45;;
37239;SDS011;23130;48.760;9.178;2023-08-20T10:07:33;14.70;;;9.85;;
37239;SDS011;23130;48.760;9.178;2023-08-20T10:10:00;12.25;;;9.98;;
37239;SDS011;23130;48.760;9.178;2023-08-20T10:12:28;11.48;;;9.75;;
37239;SDS011;23130;48.760;9.178;2023-08-20T10:14:57;10.85;;;9.85;;
37239;SDS011;23130;48.760;9.178;2023-08-20T10:17:29;12.18;;;9.27;;
37239;SDS011;23130;48.760;9.178;2023-08-20T10:19:57;10.35;;;9.38;;
37239;SDS011;23130;48.760;9.178;2023-08-20T10:22:35;10.68;;;9.55;;
37239;SDS011;23130;48.760;9.178;2023-08-20T10:25:09;15.98;;;9.88;;
37239;SDS011;23130;48.760;9.178;2023-08-20T10:27:44;11.52;;;9.68;;
37239;SDS011;23130;48.760;9.178;2023-08-20T10:30:13;13.73;;;10.07;;
37239;SDS011;23130;48.760;9.178;2023-08-20T10:32:49;9.65;;;8.27;;
37239;SDS011;23130;48.760;9.178;2023-08-20T10:35:26;10.60;;;8.70;;
37239;SDS011;23130;48.760;9.178;2023-08-20T10:38:05;12.02;;;10.05;;
37239;SDS011;23130;48.760;9.178;2023-08-20T10:46:03;9.80;;;8.60;;
37239;SDS011;23130;48.760;9.178;2023-08-20T10:48:29;8.98;;;8.02;;
37239;SDS011;23130;48.760;9.178;2023-08-20T10:50:57;11.55;;;9.63;;
37239;SDS011;23130;48.760;9.178;2023-08-20T10:53:25;13.60;;;9.23;;
37239;SDS011;23130;48.760;9.178;2023-08-20T10:55:50;10.23;;;8.95;;
37239;SDS011;23130;48.760;9.178;2023-08-20T10:58:17;10.20;;;9.20;;
37239;SDS011;23130;48.760;9.178;2023-08-20T11:01:11;12.25;;;9.60;;
37239;SDS011;23130;48.760;9.178;2023-08-20T11:03:44;11.68;;;9.07;;
37239;SDS011;23130;48.760;9.178;2023-08-20T11:06:10;9.35;;;8.45;;
37239;SDS011;23130;48.760;9.178;2023-08-20T11:08:38;9.57;;;7.95;;
37239;SDS011;23130;48.760;9.178;2023-08-20T11:11:07;9.70;;;8.70;;
37239;SDS011;23130;48.760;9.178;2023-08-20T11:13:33;10.25;;;7.47;;
37239;SDS011;23130;48.760;9.178;2023-08-20T11:16:03;10.80;;;8.70;;
37239;SDS011;23130;48.760;9.178;2023-08-20T11:18:35;11.98;;;8.30;;
37239;SDS011;23130;48.760;9.178;2023-08-20T11:21:01;8.98;;;8.10;;
37239;SDS011;23130;48.760;9.178;2023-08-20T11:23:27;9.88;;;8.57;;
37239;SDS011;23130;48.760;9.178;2023-08-20T11:25:53;10.80;;;8.35;;
37239;SDS011;23130;48.760;9.178;2023-08-20T11:28:21;11.38;;;8.45;;
37239;SDS011;23130;48.760;9.178;2023-08-20T11:30:49;8.88;;;7.95;;
37239;SDS011;23130;48.760;9.178;2023-08-20T11:33:16;10.68;;;8.50;;
37239;SDS011;23130;48.760;9.178;2023-08-20T11:35:41;10.73;;;7.90;;
37239;SDS011;23130;48.760;9.178;2023-08-20T11:38:09;10.50;;;7.55;;
37239;SDS011;23130;48.760;9.178;2023-08-20T11:40:36;9.77;;;7.90;;
37239;SDS011;23130;48.760;9.178;2023-08-20T11:43:02;10.55;;;8.55;;
37239;SDS011;23130;48.760;9.178;2023-08-20T11:45:27;11.55;;;8.15;;
37239;SDS011;23130;48.760;9.178;2023-08-20T11:47:57;10.20;;;7.63;;
37239;SDS011;23130;48.760;9.178;2023-08-20T11:50:23;13.43;;;10.02;;
37239;SDS011;23130;48.760;9.178;2023-08-20T11:52:49;9.55;;;7.75;;
37239;SDS011;23130;48.760;9.178;2023-08-20T11:55:23;13.70;;;8.30;;
37239;SDS011;23130;48.760;9.178;2023-08-20T11:57:50;8.57;;;7.75;;
37239;SDS011;23130;48.760;9.178;2023-08-20T12:00:23;9.05;;;7.28;;
37239;SDS011;23130;48.760;9.178;2023-08-20T12:02:52;9.38;;;7.30;;
37239;SDS011;23130;48.760;9.178;2023-08-20T12:05:19;9.40;;;7.95;;
37239;SDS011;23130;48.760;9.178;2023-08-20T12:07:58;8.38;;;7.47;;
37239;SDS011;23130;48.760;9.178;2023-08-20T12:10:25;7.95;;;7.18;;
37239;SDS011;23130;48.760;9.178;2023-08-20T12:12:52;8.32;;;7.28;;
37239;SDS011;23130;48.760;9.178;2023-08-20T12:15:21;9.95;;;7.82;;
37239;SDS011;23130;48.760;9.178;2023-08-20T12:17:57;8.48;;;7.43;;
37239;SDS011;23130;48.760;9.178;2023-08-20T12:20:23;11.27;;;7.05;;
37239;SDS011;23130;48.760;9.178;2023-08-20T12:22:51;9.35;;;8.18;;
37239;SDS011;23130;48.760;9.178;2023-08-20T12:25:17;12.85;;;8.13;;
37239;SDS011;23130;48.760;9.178;2023-08-20T12:27:42;7.88;;;6.38;;
37239;SDS011;23130;48.760;9.178;2023-08-20T12:30:08;7.68;;;7.00;;
37239;SDS011;23130;48.760;9.178;2023-08-20T12:32:35;8.73;;;7.18;;
37239;SDS011;23130;48.760;9.178;2023-08-20T12:35:01;7.45;;;6.75;;
37239;SDS011;23130;48.760;9.178;2023-08-20T12:37:27;9.52;;;7.60;;
37239;SDS011;23130;48.760;9.178;2023-08-20T12:39:54;9.98;;;7.07;;
37239;SDS011;23130;48.760;9.178;2023-08-20T12:42:21;11.27;;;7.18;;
37239;SDS011;23130;48.760;9.178;2023-08-20T12:44:48;11.10;;;7.45;;
37239;SDS011;23130;48.760;9.178;2023-08-20T12:47:14;11.02;;;7.53;;
37239;SDS011;23130;48.760;9.178;2023-08-20T12:49:40;8.07;;;6.93;;
37239;SDS011;23130;48.760;9.178;2023-08-20T12:52:05;9.55;;;7.55;;
37239;SDS011;23130;48.760;9.178;2023-08-20T12:54:33;7.47;;;6.63;;
37239;SDS011;23130;48.760;9.178;2023-08-20T12:56:58;12.05;;;7.63;;
37239;SDS011;23130;48.760;9.178;2023-08-20T12:59:24;13.00;;;6.60;;
37239;SDS011;23130;48.760;9.178;2023-08-20T13:01:51;8.30;;;7.10;;
37239;SDS011;23130;48.760;9.178;2023-08-20T13:04:16;8.63;;;6.75;;
37239;SDS011;23130;48.760;9.178;2023-08-20T13:06:42;7.95;;;6.93;;
37239;SDS011;23130;48.760;9.178;2023-08-20T13:09:08;9.52;;;6.63;;
37239;SDS011;23130;48.760;9.178;2023-08-20T13:11:34;8.85;;;6.72;;
37239;SDS011;23130;48.760;9.178;2023-08-20T13:14:03;9.00;;;6.15;;
37239;SDS011;23130;48.760;9.178;2023-08-20T13:16:29;13.90;;;6.82;;
37239;SDS011;23130;48.760;9.178;2023-08-20T13:18:55;6.85;;;6.13;;
37239;SDS011;23130;48.760;9.178;2023-08-20T13:21:21;12.57;;;6.25;;
37239;SDS011;23130;48.760;9.178;2023-08-20T13:23:47;10.30;;;6.63;;
37239;SDS011;23130;48.760;9.178;2023-08-20T13:26:13;8.70;;;6.32;;
37239;SDS011;23130;48.760;9.178;2023-08-20T13:28:38;7.97;;;6.10;;
37239;SDS011;23130;48.760;9.178;2023-08-20T13:31:04;8.75;;;6.63;;
37239;SDS011;23130;48.760;9.178;2023-08-20T13:33:31;7.88;;;6.18;;
37239;SDS011;23130;48.760;9.178;2023-08-20T13:35:57;10.65;;;7.50;;
37239;SDS011;23130;48.760;9.178;2023-08-20T13:38:24;11.20;;;6.45;;
37239;SDS011;23130;48.760;9.178;2023-08-20T13:40:50;6.88;;;6.18;;
37239;SDS011;23130;48.760;9.178;2023-08-20T13:43:16;8.43;;;5.97;;
37239;SDS011;23130;48.760;9.178;2023-08-20T13:45:41;7.80;;;6.22;;
37239;SDS011;23130;48.760;9.178;2023-08-20T13:48:07;7.65;;;6.88;;
37239;SDS011;23130;48.760;9.178;2023-08-20T13:50:32;7.05;;;6.28;;
37239;SDS011;23130;48.760;9.178;2023-08-20T13:52:58;7.90;;;6.65;;
37239;SDS011;23130;48.760;9.178;2023-08-20T13:55:25;9.68;;;7.18;;
37239;SDS011;23130;48.760;9.178;2023-08-20T13:57:51;8.50;;;6.25;;
37239;SDS011;23130;48.760;9.178;2023-08-20T14:00:17;8.27;;;6.13;;
37239;SDS011;23130;48.760;9.178;2023-08-20T14:02:44;10.13;;;6.50;;
37239;SDS011;23130;48.760;9.178;2023-08-20T14:05:09;12.43;;;6.68;;
37239;SDS011;23130;48.760;9.178;2023-08-20T14:07:35;9.85;;;6.50;;
37239;SDS011;23130;48.760;9.178;2023-08-20T14:10:03;7.25;;;6.53;;
37239;SDS011;23130;48.760;9.178;2023-08-20T14:12:29;7.25;;;6.55;;
37239;SDS011;23130;48.760;9.178;2023-08-20T14:14:55;10.13;;;6.30;;
37239;SDS011;23130;48.760;9.178;2023-08-20T14:17:21;7.88;;;6.20;;
37239;SDS011;23130;48.760;9.178;2023-08-20T14:19:46;7.18;;;6.40;;
37239;SDS011;23130;48.760;9.178;2023-08-20T14:22:12;8.65;;;6.88;;
37239;SDS011;23130;48.760;9.178;2023-08-20T14:24:39;11.85;;;6.95;;
37239;SDS011;23130;48.760;9.178;2023-08-20T14:27:04;9.27;;;7.80;;
37239;SDS011;23130;48.760;9.178;2023-08-20T14:29:32;9.30;;;6.50;;
37239;SDS011;23130;48.760;9.178;2023-08-20T14:31:58;8.85;;;6.78;;
37239;SDS011;23130;48.760;9.178;2023-08-20T14:34:24;8.13;;;7.32;;
37239;SDS011;23130;48.760;9.178;2023-08-20T14:36:50;8.13;;;6.93;;
37239;SDS011;23130;48.760;9.178;2023-08-20T14:39:18;7.97;;;6.28;;
37239;SDS011;23130;48.760;9.178;2023-08-20T14:41:44;8.50;;;7.13;;
37239;SDS011;23130;48.760;9.178;2023-08-20T14:44:11;9.88;;;6.40;;
37239;SDS011;23130;48.760;9.178;2023-08-20T14:46:38;9.15;;;6.47;;
37239;SDS011;23130;48.760;9.178;2023-08-20T14:49:03;7.47;;;6.22;;